createdAt,value
2023-04-01T00:00:56.798Z,0.77
2023-04-01T00:03:25.667Z,0.70
2023-04-01T00:05:54.978Z,1.57
2023-04-01T00:08:23.500Z,1.33
2023-04-01T00:10:51.887Z,0.93
2023-04-01T00:13:20.277Z,1.27
2023-04-01T00:15:50.738Z,1.10
2023-04-01T00:18:19.250Z,0.83
2023-04-01T00:20:48.228Z,0.67
2023-04-01T00:23:16.758Z,1.00
2023-04-01T00:25:46.229Z,1.10
2023-04-01T00:28:14.580Z,1.03
2023-04-01T00:30:43.056Z,1.03
2023-04-01T00:33:12.801Z,0.80
2023-04-01T00:35:41.499Z,1.37
2023-04-01T00:38:11.955Z,0.87
2023-04-01T00:40:41.429Z,0.70
2023-04-01T00:43:13.790Z,0.80
2023-04-01T00:45:43.539Z,1.10
2023-04-01T00:48:15.992Z,1.03
2023-04-01T00:50:47.058Z,1.37
2023-04-01T00:53:16.291Z,0.80
2023-04-01T00:55:46.733Z,0.80
2023-04-01T00:58:17.620Z,0.80
2023-04-01T01:00:46.072Z,0.80
2023-04-01T01:03:15.802Z,1.20
2023-04-01T01:05:58.404Z,0.90
2023-04-01T01:08:31.686Z,1.10
2023-04-01T01:11:00.021Z,0.90
2023-04-01T01:13:33.954Z,0.90
2023-04-01T01:16:03.397Z,1.00
2023-04-01T01:18:37.868Z,1.07
2023-04-01T01:21:21.112Z,0.70
2023-04-01T01:24:04.161Z,1.00
2023-04-01T01:26:53.619Z,0.80
2023-04-01T01:29:34.485Z,0.90
2023-04-01T01:32:06.205Z,1.10
2023-04-01T01:34:39.219Z,0.70
2023-04-01T01:37:12.585Z,0.83
2023-04-01T01:39:41.922Z,1.10
2023-04-01T01:42:12.720Z,0.97
2023-04-01T01:44:41.341Z,0.87
2023-04-01T01:47:09.923Z,1.10
2023-04-01T01:49:39.258Z,0.77
2023-04-01T01:52:08.984Z,0.80
2023-04-01T01:54:37.378Z,1.13
2023-04-01T01:57:08.218Z,0.90
2023-04-01T01:59:38.350Z,0.90
2023-04-01T02:02:09.039Z,0.80
2023-04-01T02:04:40.494Z,0.70
2023-04-01T02:07:12.070Z,0.70
2023-04-01T02:09:40.999Z,0.93
2023-04-01T02:12:11.158Z,0.70
2023-04-01T02:14:42.423Z,0.67
2023-04-01T02:17:12.229Z,0.70
2023-04-01T02:19:42.112Z,0.70
2023-04-01T02:22:14.215Z,0.80
2023-04-01T02:24:43.131Z,0.70
2023-04-01T02:27:12.451Z,0.60
2023-04-01T02:29:41.165Z,1.20
2023-04-01T02:32:10.410Z,0.83
2023-04-01T02:34:39.273Z,0.70
2023-04-01T02:37:07.644Z,0.80
2023-04-01T02:39:37.442Z,0.57
2023-04-01T02:42:05.944Z,0.83
2023-04-01T02:44:34.349Z,0.80
2023-04-01T02:47:02.990Z,0.80
2023-04-01T02:49:31.421Z,1.00
2023-04-01T02:51:59.776Z,0.83
2023-04-01T02:54:28.128Z,0.70
2023-04-01T02:56:57.918Z,0.93
2023-04-01T02:59:26.223Z,0.60
2023-04-01T03:01:54.611Z,1.00
2023-04-01T03:04:23.053Z,0.60
2023-04-01T03:06:52.320Z,1.00
2023-04-01T03:09:20.671Z,0.67
2023-04-01T03:11:49.033Z,0.70
2023-04-01T03:14:18.770Z,0.70
2023-04-01T03:16:47.235Z,0.83
2023-04-01T03:19:15.692Z,0.80
2023-04-01T03:21:44.066Z,0.67
2023-04-01T03:24:12.429Z,0.77
2023-04-01T03:26:40.992Z,0.60
2023-04-01T03:29:09.335Z,0.83
2023-04-01T03:31:39.033Z,0.90
2023-04-01T03:34:07.417Z,0.90
2023-04-01T03:36:35.856Z,0.70
2023-04-01T03:39:04.949Z,0.73
2023-04-01T03:41:33.313Z,0.67
2023-04-01T03:44:01.690Z,0.80
2023-04-01T03:46:30.072Z,0.87
2023-04-01T03:48:59.861Z,0.80
2023-04-01T03:51:28.208Z,0.70
2023-04-01T03:53:56.697Z,0.80
2023-04-01T03:56:25.063Z,0.73
2023-04-01T03:58:53.451Z,0.80
2023-04-01T04:01:22.770Z,0.80
2023-04-01T04:03:51.925Z,0.83
2023-04-01T04:06:22.032Z,1.17
2023-04-01T04:08:50.384Z,0.60
2023-04-01T04:11:19.257Z,0.80
2023-04-01T04:13:48.719Z,0.60
2023-04-01T04:16:17.158Z,0.90
2023-04-01T04:18:45.535Z,0.80
2023-04-01T04:21:15.023Z,0.90
2023-04-01T04:23:45.486Z,0.90
2023-04-01T04:26:14.807Z,1.27
2023-04-01T04:28:43.515Z,0.87
2023-04-01T04:31:12.026Z,0.80
2023-04-01T04:33:40.483Z,0.70
2023-04-01T04:36:09.224Z,1.57
2023-04-01T04:38:37.626Z,0.80
2023-04-01T04:41:11.278Z,0.70
2023-04-01T04:43:39.615Z,0.77
2023-04-01T04:46:08.881Z,0.70
2023-04-01T04:48:37.410Z,0.80
2023-04-01T04:51:05.861Z,0.80
2023-04-01T04:53:34.228Z,0.80
2023-04-01T04:56:02.559Z,1.00
2023-04-01T04:58:32.296Z,0.80
2023-04-01T05:01:00.755Z,0.93
2023-04-01T05:03:29.289Z,0.97
2023-04-01T05:05:57.673Z,0.90
2023-04-01T05:08:26.148Z,1.00
2023-04-01T05:10:54.560Z,0.97
2023-04-01T05:13:22.998Z,0.97
2023-04-01T05:15:52.715Z,0.90
2023-04-01T05:18:21.090Z,0.73
2023-04-01T05:20:50.252Z,0.93
2023-04-01T05:23:19.061Z,0.90
2023-04-01T05:25:47.411Z,0.70
2023-04-01T05:28:15.778Z,2.13
2023-04-01T05:30:44.901Z,1.20
2023-04-01T05:33:15.140Z,1.47
2023-04-01T05:35:43.542Z,1.60
2023-04-01T05:38:11.925Z,0.90
2023-04-01T05:40:40.348Z,0.80
2023-04-01T05:43:08.715Z,0.80
2023-04-01T05:45:37.689Z,0.87
2023-04-01T05:48:06.186Z,0.83
2023-04-01T05:50:35.985Z,0.83
2023-04-01T05:53:04.428Z,0.70
2023-04-01T05:55:32.982Z,0.83
2023-04-01T05:58:01.596Z,1.13
2023-04-01T06:00:29.994Z,0.90
2023-04-01T06:03:01.051Z,0.60
2023-04-01T06:05:31.222Z,0.63
2023-04-01T06:08:03.711Z,0.67
2023-04-01T06:10:39.239Z,0.80
2023-04-01T06:13:09.650Z,0.83
2023-04-01T06:15:39.656Z,1.13
2023-04-01T06:18:22.426Z,0.90
2023-04-01T06:20:55.626Z,0.80
2023-04-01T06:23:45.256Z,1.00
2023-04-01T06:26:21.793Z,0.70
2023-04-01T06:29:17.525Z,0.90
2023-04-01T06:32:03.713Z,0.70
2023-04-01T06:34:43.844Z,0.70
2023-04-01T06:37:19.146Z,0.90
2023-04-01T06:39:59.168Z,0.83
2023-04-01T06:42:35.065Z,0.80
2023-04-01T06:45:09.835Z,0.70
2023-04-01T06:47:45.653Z,0.90
2023-04-01T06:50:16.773Z,1.20
2023-04-01T06:52:51.026Z,0.70
2023-04-01T06:55:24.023Z,1.00
2023-04-01T06:57:55.197Z,0.80
2023-04-01T07:00:29.337Z,0.77
2023-04-01T07:03:01.737Z,0.70
2023-04-01T07:05:32.120Z,0.90
2023-04-01T07:08:02.215Z,0.70
2023-04-01T07:10:36.922Z,1.10
2023-04-01T07:13:07.833Z,1.03
2023-04-01T07:15:38.538Z,0.90
2023-04-01T07:18:10.100Z,0.80
2023-04-01T07:20:39.735Z,0.80
2023-04-01T07:23:09.451Z,0.97
2023-04-01T07:25:39.542Z,0.70
2023-04-01T07:28:14.127Z,1.00
2023-04-01T07:30:47.410Z,1.33
2023-04-01T07:33:17.647Z,0.90
2023-04-01T07:35:47.494Z,0.70
2023-04-01T07:38:22.449Z,0.90
2023-04-01T07:40:55.177Z,0.90
2023-04-01T07:43:33.286Z,1.17
2023-04-01T07:46:06.207Z,0.80
2023-04-01T07:48:38.584Z,1.20
2023-04-01T07:51:11.160Z,0.80
2023-04-01T07:53:41.300Z,1.00
2023-04-01T07:56:12.838Z,1.00
2023-04-01T07:58:50.343Z,0.70
2023-04-01T08:01:22.434Z,0.90
2023-04-01T08:03:57.603Z,0.80
2023-04-01T08:06:31.321Z,0.80
2023-04-01T08:09:03.347Z,0.70
2023-04-01T08:11:39.871Z,0.60
2023-04-01T08:14:15.781Z,0.90
2023-04-01T08:16:45.891Z,0.90
2023-04-01T08:19:20.251Z,0.77
2023-04-01T08:21:50.098Z,0.70
2023-04-01T08:24:31.760Z,0.80
2023-04-01T08:27:09.137Z,0.80
2023-04-01T08:29:41.740Z,0.73
2023-04-01T08:32:13.039Z,0.73
2023-04-01T08:34:43.279Z,0.93
2023-04-01T08:37:15.172Z,0.70
2023-04-01T08:39:45.453Z,0.80
2023-04-01T08:42:31.145Z,0.87
2023-04-01T08:45:17.409Z,1.37
2023-04-01T08:48:09.544Z,0.90
2023-04-01T08:50:53.008Z,0.70
2023-04-01T08:53:23.933Z,0.70
2023-04-01T08:56:03.946Z,0.80
2023-04-01T08:58:40.211Z,0.93
2023-04-01T09:01:16.376Z,1.00
2023-04-01T09:03:50.040Z,0.90
2023-04-01T09:06:29.793Z,1.00
2023-04-01T09:09:10.332Z,0.67
2023-04-01T09:11:45.622Z,0.80
2023-04-01T09:14:32.460Z,0.60
2023-04-01T09:17:20.422Z,0.87
2023-04-01T09:20:04.430Z,0.73
2023-04-01T09:22:49.714Z,0.87
2023-04-01T09:25:38.073Z,0.50
2023-04-01T09:28:11.760Z,0.90
2023-04-01T09:30:56.517Z,0.77
2023-04-01T09:33:40.493Z,0.80
2023-04-01T09:36:15.838Z,0.60
2023-04-01T09:38:54.906Z,1.00
2023-04-01T09:41:30.482Z,0.87
2023-04-01T09:44:04.753Z,0.60
2023-04-01T09:46:43.608Z,0.70
2023-04-01T09:49:29.273Z,0.70
2023-04-01T09:52:04.665Z,0.63
2023-04-01T09:54:46.843Z,0.60
2023-04-01T09:57:36.228Z,0.70
2023-04-01T10:00:20.378Z,1.07
2023-04-01T10:03:06.670Z,1.10
2023-04-01T10:05:51.697Z,0.67
2023-04-01T10:08:33.761Z,0.80
2023-04-01T10:11:22.898Z,1.00
2023-04-01T10:14:10.010Z,1.10
2023-04-01T10:16:52.662Z,0.60
2023-04-01T10:19:42.829Z,0.60
2023-04-01T10:22:27.134Z,0.60
2023-04-01T10:25:09.067Z,1.10
2023-04-01T10:27:47.094Z,0.90
2023-04-01T10:30:29.308Z,0.60
2023-04-01T10:33:27.427Z,1.03
2023-04-01T10:36:22.793Z,0.60
2023-04-01T10:39:11.978Z,0.60
2023-04-01T10:41:55.382Z,0.70
2023-04-01T10:44:39.717Z,0.90
2023-04-01T10:47:26.170Z,0.63
2023-04-01T10:50:13.164Z,1.20
2023-04-01T10:53:02.623Z,0.50
2023-04-01T10:55:47.225Z,0.70
2023-04-01T10:58:41.312Z,0.70
2023-04-01T11:01:25.878Z,0.80
2023-04-01T11:04:16.536Z,0.80
2023-04-01T11:06:59.766Z,0.90
2023-04-01T11:09:55.046Z,0.50
2023-04-01T11:12:31.652Z,0.70
2023-04-01T11:15:21.183Z,0.87
2023-04-01T11:18:08.230Z,0.80
2023-04-01T11:21:03.603Z,0.90
2023-04-01T11:23:55.082Z,0.50
2023-04-01T11:26:41.954Z,1.27
2023-04-01T11:29:28.299Z,0.60
2023-04-01T11:32:02.022Z,0.60
2023-04-01T11:34:37.934Z,0.60
2023-04-01T11:37:11.482Z,0.60
2023-04-01T11:39:43.142Z,0.60
2023-04-01T11:42:20.780Z,0.70
2023-04-01T11:44:54.177Z,0.70
2023-04-01T11:47:31.044Z,1.10
2023-04-01T11:50:06.707Z,0.73
2023-04-01T11:52:57.025Z,0.60
2023-04-01T11:55:27.842Z,1.20
2023-04-01T11:58:14.121Z,0.70
2023-04-01T12:00:49.845Z,0.77
2023-04-01T12:03:34.116Z,0.70
2023-04-01T12:06:08.434Z,0.50
2023-04-01T12:08:42.291Z,0.80
2023-04-01T12:11:16.763Z,0.80
2023-04-01T12:13:48.662Z,0.70
2023-04-01T12:16:25.561Z,0.50
2023-04-01T12:18:58.556Z,0.63
2023-04-01T12:21:30.171Z,0.80
2023-04-01T12:24:08.579Z,0.60
2023-04-01T12:26:50.611Z,0.67
2023-04-01T12:29:40.100Z,0.83
2023-04-01T12:32:13.349Z,0.50
2023-04-01T12:34:59.653Z,0.77
2023-04-01T12:37:33.687Z,0.80
2023-04-01T12:40:08.192Z,0.70
2023-04-01T12:42:43.401Z,0.80
2023-04-01T12:45:21.722Z,0.77
2023-04-01T12:47:57.418Z,0.60
2023-04-01T12:50:31.206Z,0.70
2023-04-01T12:53:09.219Z,0.70
2023-04-01T12:55:41.786Z,0.60
2023-04-01T12:58:25.058Z,0.67
2023-04-01T13:01:03.328Z,0.70
2023-04-01T13:03:45.032Z,0.60
2023-04-01T13:06:23.488Z,0.90
2023-04-01T13:08:56.280Z,0.70
2023-04-01T13:11:28.149Z,0.70
2023-04-01T13:14:25.026Z,0.60
2023-04-01T13:17:01.017Z,0.63
2023-04-01T13:19:34.556Z,0.50
2023-04-01T13:22:06.707Z,0.67
2023-04-01T13:24:42.751Z,0.70
2023-04-01T13:27:13.607Z,0.77
2023-04-01T13:29:44.028Z,0.60
2023-04-01T13:32:33.292Z,0.50
2023-04-01T13:35:20.277Z,0.60
2023-04-01T13:37:54.072Z,0.60
2023-04-01T13:40:49.356Z,0.60
2023-04-01T13:43:26.315Z,0.60
2023-04-01T13:46:06.050Z,0.60
2023-04-01T13:48:55.042Z,0.60
2023-04-01T13:51:41.140Z,0.50
2023-04-01T13:54:18.341Z,0.60
2023-04-01T13:56:53.618Z,0.97
2023-04-01T13:59:39.710Z,0.50
2023-04-01T14:02:17.312Z,0.73
2023-04-01T14:04:56.913Z,0.50
2023-04-01T14:07:32.831Z,0.80
2023-04-01T14:10:06.936Z,0.70
2023-04-01T14:12:39.871Z,0.70
2023-04-01T14:15:16.949Z,0.53
2023-04-01T14:17:49.542Z,1.07
2023-04-01T14:20:28.344Z,0.60
2023-04-01T14:23:05.457Z,1.00
2023-04-01T14:25:42.072Z,1.00
2023-04-01T14:28:16.542Z,1.10
2023-04-01T14:30:56.491Z,0.70
2023-04-01T14:33:38.587Z,0.77
2023-04-01T14:36:34.186Z,0.53
2023-04-01T14:39:10.345Z,0.70
2023-04-01T14:41:44.429Z,0.60
2023-04-01T14:44:33.634Z,0.63
2023-04-01T14:47:18.328Z,0.60
2023-04-01T14:49:49.025Z,0.90
2023-04-01T14:52:18.973Z,0.60
2023-04-01T14:54:49.200Z,0.70
2023-04-01T14:57:19.657Z,0.50
2023-04-01T14:59:51.230Z,0.63
2023-04-01T15:02:38.372Z,0.60
2023-04-01T15:05:13.409Z,0.70
2023-04-01T15:07:59.711Z,0.50
2023-04-01T15:10:38.056Z,0.97
2023-04-01T15:13:13.828Z,0.60
2023-04-01T15:15:48.942Z,0.80
2023-04-01T15:18:20.286Z,0.60
2023-04-01T15:21:07.340Z,0.70
2023-04-01T15:23:39.915Z,0.70
2023-04-01T15:26:23.109Z,0.80
2023-04-01T15:28:57.922Z,0.93
2023-04-01T15:31:30.553Z,0.70
2023-04-01T15:34:14.670Z,0.60
2023-04-01T15:36:46.019Z,0.87
2023-04-01T15:39:17.797Z,1.20
2023-04-01T15:41:52.015Z,0.60
2023-04-01T15:44:42.898Z,0.73
2023-04-01T15:47:22.477Z,0.70
2023-04-01T15:49:58.234Z,0.83
2023-04-01T15:52:36.844Z,0.90
2023-04-01T15:55:19.806Z,0.93
2023-04-01T15:57:54.820Z,0.73
2023-04-01T16:00:28.520Z,0.90
2023-04-01T16:03:13.052Z,0.90
2023-04-01T16:05:47.600Z,2.00
2023-04-01T16:08:24.043Z,0.93
2023-04-01T16:10:59.309Z,0.97
2023-04-01T16:13:31.211Z,0.93
2023-04-01T16:16:03.473Z,0.87
2023-04-01T16:18:38.574Z,1.03
2023-04-01T16:21:09.862Z,0.73
2023-04-01T16:23:39.638Z,1.00
2023-04-01T16:26:10.806Z,1.20
2023-04-01T16:28:43.954Z,1.00
2023-04-01T16:31:16.716Z,0.93
2023-04-01T16:33:50.248Z,1.00
2023-04-01T16:36:25.168Z,0.87
2023-04-01T16:38:56.374Z,1.00
2023-04-01T16:41:27.783Z,0.83
2023-04-01T16:43:59.075Z,0.80
2023-04-01T16:46:33.883Z,0.70
2023-04-01T16:49:06.826Z,0.93
2023-04-01T16:51:44.788Z,0.70
2023-04-01T16:54:17.195Z,1.10
2023-04-01T16:56:48.202Z,0.80
2023-04-01T16:59:20.856Z,0.83
2023-04-01T17:01:52.653Z,0.73
2023-04-01T17:04:27.064Z,1.23
2023-04-01T17:06:59.152Z,0.90
2023-04-01T17:09:32.570Z,0.90
2023-04-01T17:12:07.408Z,1.10
2023-04-01T17:14:42.598Z,1.20
2023-04-01T17:17:18.329Z,1.00
2023-04-01T17:19:57.902Z,0.80
2023-04-01T17:22:30.827Z,1.10
2023-04-01T17:25:06.274Z,0.93
2023-04-01T17:27:39.665Z,0.80
2023-04-01T17:30:32.235Z,0.90
2023-04-01T17:33:06.798Z,0.73
2023-04-01T17:35:38.362Z,0.83
2023-04-01T17:38:14.210Z,0.90
2023-04-01T17:40:48.072Z,0.93
2023-04-01T17:43:22.528Z,0.60
2023-04-01T17:45:54.341Z,1.00
2023-04-01T17:48:27.045Z,0.87
2023-04-01T17:51:02.181Z,1.00
2023-04-01T17:53:34.005Z,0.60
2023-04-01T17:56:10.501Z,1.07
2023-04-01T17:58:47.284Z,1.57
2023-04-01T18:01:20.003Z,1.03
2023-04-01T18:04:06.270Z,0.80
2023-04-01T18:06:39.304Z,1.30
2023-04-01T18:09:11.758Z,0.97
2023-04-01T18:11:47.321Z,0.90
2023-04-01T18:14:33.241Z,0.93
2023-04-01T18:17:11.316Z,1.00
2023-04-01T18:19:43.379Z,0.70
2023-04-01T18:22:19.627Z,0.90
2023-04-01T18:24:51.687Z,0.73
2023-04-01T18:27:21.211Z,1.20
2023-04-01T18:29:52.726Z,0.73
2023-04-01T18:32:27.220Z,0.70
2023-04-01T18:34:58.150Z,0.80
2023-04-01T18:37:30.067Z,1.10
2023-04-01T18:40:01.150Z,0.93
2023-04-01T18:42:33.271Z,0.87
2023-04-01T18:45:04.802Z,1.10
2023-04-01T18:47:43.763Z,0.80
2023-04-01T18:50:17.758Z,0.90
2023-04-01T18:52:48.740Z,1.30
2023-04-01T18:55:34.881Z,1.37
2023-04-01T18:58:13.592Z,1.10
2023-04-01T19:00:46.035Z,1.00
2023-04-01T19:03:19.011Z,1.03
2023-04-01T19:05:48.621Z,0.80
2023-04-01T19:08:21.409Z,1.00
2023-04-01T19:10:55.378Z,1.10
2023-04-01T19:13:27.025Z,0.83
2023-04-01T19:16:01.286Z,0.83
2023-04-01T19:18:53.792Z,1.23
2023-04-01T19:21:24.263Z,1.43
2023-04-01T19:24:11.218Z,1.00
2023-04-01T19:26:42.563Z,1.20
2023-04-01T19:29:20.607Z,1.07
2023-04-01T19:31:54.697Z,1.00
2023-04-01T19:34:28.775Z,1.30
2023-04-01T19:36:58.588Z,0.70
2023-04-01T19:39:33.615Z,1.20
2023-04-01T19:42:06.572Z,1.20
2023-04-01T19:44:39.404Z,2.73
2023-04-01T19:47:12.250Z,2.77
2023-04-01T19:49:45.758Z,3.23
2023-04-01T19:52:17.019Z,4.13
2023-04-01T19:54:47.927Z,2.97
2023-04-01T19:57:24.516Z,2.47
2023-04-01T19:59:55.567Z,2.90
2023-04-01T20:02:39.000Z,1.60
2023-04-01T20:05:14.666Z,0.80
2023-04-01T20:07:46.694Z,1.20
2023-04-01T20:10:18.002Z,1.20
2023-04-01T20:12:50.577Z,1.73
2023-04-01T20:15:26.247Z,2.70
2023-04-01T20:17:54.937Z,1.70
2023-04-01T20:20:24.628Z,1.63
2023-04-01T20:23:02.997Z,1.27
2023-04-01T20:25:34.877Z,1.17
2023-04-01T20:28:06.880Z,0.80
2023-04-01T20:30:54.449Z,1.30
2023-04-01T20:33:39.038Z,1.10
2023-04-01T20:36:09.494Z,1.00
2023-04-01T20:38:54.422Z,0.90
2023-04-01T20:41:26.369Z,1.20
2023-04-01T20:44:00.568Z,1.50
2023-04-01T20:46:33.604Z,0.90
2023-04-01T20:49:23.153Z,1.00
2023-04-01T20:51:56.777Z,1.03
2023-04-01T20:54:32.920Z,1.40
2023-04-01T20:57:06.853Z,0.90
2023-04-01T20:59:44.265Z,1.03
2023-04-01T21:02:20.943Z,1.10
2023-04-01T21:05:08.520Z,1.03
2023-04-01T21:07:37.693Z,1.00
2023-04-01T21:10:12.262Z,1.03
2023-04-01T21:12:44.433Z,1.47
2023-04-01T21:15:24.948Z,1.10
2023-04-01T21:18:00.116Z,0.90
2023-04-01T21:20:35.457Z,1.60
2023-04-01T21:23:13.991Z,1.27
2023-04-01T21:25:46.857Z,1.30
2023-04-01T21:28:36.331Z,2.00
2023-04-01T21:31:15.641Z,1.03
2023-04-01T21:33:52.751Z,1.10
2023-04-01T21:36:27.090Z,1.60
2023-04-01T21:39:03.526Z,1.63
2023-04-01T21:41:46.354Z,1.10
2023-04-01T21:44:33.540Z,1.33
2023-04-01T21:47:11.257Z,1.43
2023-04-01T21:49:58.142Z,1.53
2023-04-01T21:52:35.437Z,1.40
2023-04-01T21:55:30.784Z,2.20
2023-04-01T21:58:11.854Z,1.80
2023-04-01T22:00:41.042Z,2.63
2023-04-01T22:03:33.414Z,2.10
2023-04-01T22:06:08.086Z,1.50
2023-04-01T22:08:42.811Z,2.10
2023-04-01T22:11:17.901Z,1.37
2023-04-01T22:13:51.180Z,1.90
2023-04-01T22:16:26.594Z,1.63
2023-04-01T22:19:00.956Z,2.07
2023-04-01T22:21:35.403Z,1.63
2023-04-01T22:24:07.720Z,1.70
2023-04-01T22:26:38.711Z,1.30
2023-04-01T22:29:09.857Z,1.77
2023-04-01T22:31:42.042Z,1.70
2023-04-01T22:34:13.476Z,1.30
2023-04-01T22:36:47.780Z,1.20
2023-04-01T22:39:24.872Z,1.10
2023-04-01T22:42:02.463Z,1.07
2023-04-01T22:44:37.958Z,0.90
2023-04-01T22:47:09.068Z,1.20
2023-04-01T22:49:39.959Z,0.90
2023-04-01T22:52:13.768Z,1.23
2023-04-01T22:54:44.965Z,1.20
2023-04-01T22:57:15.495Z,1.03
2023-04-01T22:59:47.685Z,1.43
2023-04-01T23:02:18.373Z,1.00
2023-04-01T23:04:48.417Z,1.00
2023-04-01T23:07:31.643Z,0.80
2023-04-01T23:10:02.262Z,0.70
2023-04-01T23:12:31.443Z,0.80
2023-04-01T23:15:01.321Z,1.33
2023-04-01T23:17:36.723Z,1.40
2023-04-01T23:20:18.965Z,1.50
2023-04-01T23:22:55.588Z,0.80
2023-04-01T23:25:30.521Z,1.00
2023-04-01T23:28:02.672Z,1.60
2023-04-01T23:30:51.160Z,0.93
2023-04-01T23:33:24.272Z,1.00
2023-04-01T23:35:53.346Z,0.90
2023-04-01T23:38:21.986Z,1.33
2023-04-01T23:40:52.801Z,1.00
2023-04-01T23:43:24.789Z,1.07
2023-04-01T23:45:53.382Z,0.90
2023-04-01T23:48:22.377Z,1.47
2023-04-01T23:50:50.773Z,1.10
2023-04-01T23:53:21.460Z,1.00
2023-04-01T23:55:49.914Z,1.20
2023-04-01T23:58:24.056Z,1.17
